createdAt,value
2017-04-30T00:09:59.211Z,0
2017-04-30T00:20:14.059Z,0
2017-04-30T00:30:27.738Z,0
2017-04-30T00:40:41.485Z,0
2017-04-30T00:50:56.753Z,0
2017-04-30T01:01:11.431Z,0
2017-04-30T01:11:26.155Z,0
2017-04-30T01:21:40.300Z,0
2017-04-30T01:31:54.704Z,0
2017-04-30T01:42:09.677Z,0
2017-04-30T01:52:23.344Z,0
2017-04-30T02:02:38.038Z,0
2017-04-30T02:12:53.600Z,0
2017-04-30T02:23:08.805Z,0
2017-04-30T02:33:23.989Z,0
2017-04-30T02:43:37.803Z,0
2017-04-30T02:53:51.591Z,0
2017-04-30T03:04:07.054Z,0
2017-04-30T03:14:21.112Z,0
2017-04-30T03:24:36.126Z,0
2017-04-30T03:34:51.154Z,12
2017-04-30T03:45:05.232Z,56
2017-04-30T03:55:19.429Z,208
2017-04-30T04:05:33.214Z,532
2017-04-30T04:15:47.661Z,1052
2017-04-30T04:26:01.480Z,1668
2017-04-30T04:36:17.072Z,2296
2017-04-30T04:46:32.560Z,2964
2017-04-30T04:56:46.318Z,3864
2017-04-30T05:07:00.261Z,4172
2017-04-30T05:17:15.873Z,4360
2017-04-30T05:27:30.261Z,5036
2017-04-30T05:37:45.703Z,9108
2017-04-30T05:48:00.619Z,12440
2017-04-30T05:58:15.950Z,10112
2017-04-30T06:08:29.706Z,9704
2017-04-30T06:18:43.940Z,14208
2017-04-30T06:28:59.053Z,11528
2017-04-30T06:39:13.729Z,24288
2017-04-30T06:49:28.684Z,17472
2017-04-30T06:59:43.727Z,22912
2017-04-30T07:09:58.795Z,33184
2017-04-30T07:20:12.819Z,43008
2017-04-30T07:30:28.085Z,45984
2017-04-30T07:40:43.849Z,48192
2017-04-30T07:50:58.951Z,46400
2017-04-30T08:01:13.200Z,48160
2017-04-30T08:11:27.828Z,47008
2017-04-30T08:21:43.058Z,52832
2017-04-30T08:31:58.249Z,58208
2017-04-30T08:42:13.869Z,65824
2017-04-30T08:52:28.599Z,67648
2017-04-30T09:02:43.488Z,67424
2017-04-30T09:12:59.353Z,69312
2017-04-30T09:23:14.916Z,68224
2017-04-30T09:33:30.297Z,72256
2017-04-30T09:43:45.792Z,68960
2017-04-30T09:54:00.218Z,74784
2017-04-30T10:04:15.878Z,74368
2017-04-30T10:14:31.528Z,84096
2017-04-30T10:24:46.426Z,83712
2017-04-30T10:35:00.403Z,92576
2017-04-30T10:45:14.510Z,77120
2017-04-30T10:55:29.044Z,79104
2017-04-30T11:05:43.095Z,77184
2017-04-30T11:15:57.613Z,72864
2017-04-30T11:26:12.239Z,85664
2017-04-30T11:36:26.767Z,93344
2017-04-30T11:46:41.370Z,89920
2017-04-30T11:56:55.840Z,85536
2017-04-30T12:07:10.092Z,84928
2017-04-30T12:17:24.493Z,91552
2017-04-30T12:27:40.028Z,94048
2017-04-30T12:37:54.275Z,97024
2017-04-30T12:48:09.804Z,84928
2017-04-30T12:58:25.554Z,100512
2017-04-30T13:08:40.794Z,38208
2017-04-30T13:18:55.240Z,44640
2017-04-30T13:29:09.782Z,96096
2017-04-30T13:39:25.303Z,86560
2017-04-30T13:49:40.530Z,50848
2017-04-30T13:59:54.909Z,85696
2017-04-30T14:10:08.922Z,84512
2017-04-30T14:20:23.555Z,30432
2017-04-30T14:30:37.967Z,73312
2017-04-30T14:40:53.701Z,67040
2017-04-30T14:51:09.398Z,62688
2017-04-30T15:01:23.336Z,60448
2017-04-30T15:11:37.918Z,52384
2017-04-30T15:21:51.909Z,52832
2017-04-30T15:32:07.139Z,30944
2017-04-30T15:42:21.509Z,24064
2017-04-30T15:52:36.887Z,27104
2017-04-30T16:02:51.728Z,22464
2017-04-30T16:13:05.911Z,20832
2017-04-30T16:23:21.021Z,16840
2017-04-30T16:33:36.817Z,31648
2017-04-30T16:43:51.623Z,28288
2017-04-30T16:54:07.009Z,28672
2017-04-30T17:04:22.420Z,25696
2017-04-30T17:14:38.013Z,19040
2017-04-30T17:24:52.811Z,15360
2017-04-30T17:35:06.994Z,8456
2017-04-30T17:45:22.134Z,7792
2017-04-30T17:55:36.806Z,6240
2017-04-30T18:05:52.419Z,5476
2017-04-30T18:16:06.227Z,3700
2017-04-30T18:26:20.027Z,2240
2017-04-30T18:36:34.421Z,1296
2017-04-30T18:46:49.532Z,576
2017-04-30T18:57:04.479Z,228
2017-04-30T19:07:19.671Z,72
2017-04-30T19:17:33.882Z,16
2017-04-30T19:27:49.186Z,4
2017-04-30T19:38:02.997Z,0
2017-04-30T19:48:18.225Z,0
2017-04-30T19:58:32.523Z,0
2017-04-30T20:08:47.286Z,0
2017-04-30T20:19:02.591Z,0
2017-04-30T20:29:17.846Z,0
2017-04-30T20:39:32.847Z,0
2017-04-30T20:49:47.002Z,0
2017-04-30T21:00:00.910Z,0
2017-04-30T21:10:14.843Z,0
2017-04-30T21:20:29.231Z,0
2017-04-30T21:30:43.755Z,0
2017-04-30T21:40:58.779Z,0
2017-04-30T21:51:13.889Z,0
2017-04-30T22:01:28.592Z,0
2017-04-30T22:11:42.401Z,0
2017-04-30T22:21:57.666Z,0
2017-04-30T22:32:12.236Z,0
2017-04-30T22:42:26.913Z,0
2017-04-30T22:52:41.928Z,0
2017-04-30T23:02:57.029Z,0
2017-04-30T23:13:11.600Z,0
2017-04-30T23:23:25.548Z,0
2017-04-30T23:33:39.941Z,0
2017-04-30T23:43:55.370Z,0
2017-04-30T23:54:10.632Z,0
